Villa Clarita, Puerto Rico
Current Conditions -  °F | °C
As of 5:53 AM on Saturday 27 Dec 2014 (Local Time) from TJNR Reporting Station
Scattered Clouds Scattered Clouds  
Wind Chill: 76°   Ceiling: Unl
Heat Index: 76°   Visibility: 10mi
Dew Point: 62°   Wind: 10mph
Humidity: 62%   Direction: 60°ENE
Pressure: 30.06"   Gusts: NA
Location:  18.3304°N, 65.6573°W
Report Text: TJNR 270953Z AUTO 06009KT 10SM SCT037 24/17 A3006 RMK AO2 SLP179 T02440167 $
Loading
Personal Weather Stations






























Interactive Weather Map New forecast layout! Learn more

10-Day Weather Forecast

Advertisements
Track Severe Weather on mobile